Time;durP1;ratioP1;P1;durP2;ratioP2;P2;SDS_P1;SDS_P2;PMS_P1;PMS_P2;Temp;Humidity;BMP_temperature;BMP_pressure;BME280_temperature;BME280_humidity;BME280_pressure;Samples;Min_cycle;Max_cycle;Signal;HPM_P1;HPM_P2
2022/08/05 00:00:47;;;;;;;1999.90;999.90;;;22.50;99.90;;;;;;5015550;28;20179;-67
2022/08/05 00:03:12;;;;;;;1999.90;999.90;;;22.50;99.90;;;;;;5015485;28;20551;-68
2022/08/05 00:05:38;;;;;;;1999.90;999.90;;;22.60;99.90;;;;;;5015774;28;20222;-67
2022/08/05 00:08:04;;;;;;;1999.90;999.90;;;22.50;99.90;;;;;;5015102;28;20165;-68
2022/08/05 00:10:29;;;;;;;1999.90;999.90;;;22.50;99.90;;;;;;5015321;28;20192;-67
2022/08/05 00:12:55;;;;;;;1999.90;999.90;;;22.50;99.90;;;;;;5016568;28;20533;-68
2022/08/05 00:15:21;;;;;;;1999.90;999.90;;;22.50;99.90;;;;;;5030514;28;20197;-68
2022/08/05 00:17:47;;;;;;;1999.90;999.90;;;22.50;99.90;;;;;;4998597;28;20491;-67
2022/08/05 00:20:12;;;;;;;1999.90;999.90;;;22.50;99.90;;;;;;5015207;28;20177;-68
2022/08/05 00:22:38;;;;;;;1999.90;999.90;;;22.50;99.90;;;;;;5014891;28;20214;-67
2022/08/05 00:25:04;;;;;;;1999.90;999.90;;;22.50;99.90;;;;;;5015079;28;20172;-68
2022/08/05 00:27:29;;;;;;;1999.90;999.90;;;22.50;99.90;;;;;;5014736;28;20670;-67
2022/08/05 00:29:55;;;;;;;1999.90;999.90;;;22.30;99.90;;;;;;5014956;28;20512;-67
2022/08/05 00:32:21;;;;;;;1999.90;999.90;;;22.00;99.90;;;;;;5014955;28;20196;-67
2022/08/05 00:34:47;;;;;;;1999.90;999.90;;;21.90;99.90;;;;;;5015020;28;20382;-68
2022/08/05 00:37:12;;;;;;;1999.90;999.90;;;21.80;99.90;;;;;;5014390;28;20219;-68
2022/08/05 00:39:41;;;;;;;1999.90;999.90;;;21.80;99.90;;;;;;5014318;28;20212;-67
2022/08/05 00:42:07;;;;;;;1999.90;999.90;;;21.80;99.90;;;;;;5014655;28;20283;-68
2022/08/05 00:44:32;;;;;;;1999.90;999.90;;;21.80;99.90;;;;;;5014584;28;20473;-67
2022/08/05 00:46:58;;;;;;;1999.90;999.90;;;21.80;99.90;;;;;;5014673;28;20184;-67
2022/08/05 00:49:24;;;;;;;1999.90;999.90;;;21.60;99.90;;;;;;5014581;28;20198;-67
2022/08/05 00:51:49;;;;;;;1999.90;999.90;;;21.40;99.90;;;;;;5014490;28;20254;-67
2022/08/05 00:54:15;;;;;;;1999.90;999.90;;;21.20;99.90;;;;;;5014575;28;20177;-67
2022/08/05 00:56:40;;;;;;;1999.90;999.90;;;21.00;99.90;;;;;;5014248;28;20171;-66
2022/08/05 00:59:06;;;;;;;1999.90;999.90;;;20.80;99.90;;;;;;5014496;28;20179;-67
2022/08/05 01:01:32;;;;;;;1999.90;999.90;;;20.70;99.90;;;;;;5014409;28;20198;-67
2022/08/05 01:03:57;;;;;;;1999.90;999.90;;;20.60;99.90;;;;;;5014454;28;20413;-67
2022/08/05 01:06:23;;;;;;;1999.90;999.90;;;20.40;99.90;;;;;;5014014;28;20165;-67
2022/08/05 01:08:49;;;;;;;1999.90;999.90;;;20.30;99.90;;;;;;5014196;28;20235;-67
2022/08/05 01:11:25;;;;;;;1999.90;999.90;;;20.30;99.90;;;;;;5014299;28;20257;-67
2022/08/05 01:14:15;;;;;;;1999.90;999.90;;;20.10;99.90;;;;;;5014231;28;20186;-67
2022/08/05 01:17:12;;;;;;;1999.90;999.90;;;20.10;99.90;;;;;;5017189;28;20400;-66
2022/08/05 01:19:39;;;;;;;1999.90;999.90;;;20.00;99.90;;;;;;5034086;28;20432;-66
2022/08/05 01:22:19;;;;;;;1999.90;999.90;;;20.00;99.90;;;;;;5014570;28;20562;-67
2022/08/05 01:25:16;;;;;;;1999.90;999.90;;;20.00;99.90;;;;;;5014496;28;20269;-66
2022/08/05 01:28:23;;;;;;;1999.90;999.90;;;19.90;99.90;;;;;;5013882;28;20418;-67
2022/08/05 01:31:14;;;;;;;1999.90;999.90;;;19.90;99.90;;;;;;5030348;28;20455;-68
2022/08/05 01:34:11;;;;;;;1999.90;999.90;;;19.80;99.90;;;;;;5033473;28;20513;-66
2022/08/05 01:36:57;;;;;;;1999.90;999.90;;;19.90;99.90;;;;;;5033277;28;20409;-65
2022/08/05 01:39:34;;;;;;;1999.90;999.90;;;19.80;99.90;;;;;;5018644;28;20428;-65
2022/08/05 01:42:05;;;;;;;1999.90;999.90;;;19.70;99.90;;;;;;5003721;28;20439;-66
2022/08/05 01:44:37;;;;;;;1999.90;999.90;;;19.70;99.90;;;;;;5018190;28;20410;-65
2022/08/05 01:47:37;;;;;;;1999.90;999.90;;;19.70;99.90;;;;;;5019057;28;20423;-66
2022/08/05 01:50:17;;;;;;;1999.90;999.90;;;19.70;99.90;;;;;;5002215;28;20440;-64
2022/08/05 01:52:47;;;;;;;1999.90;999.90;;;19.60;99.90;;;;;;5019453;28;20462;-68
2022/08/05 01:55:22;;;;;;;1999.90;999.90;;;19.60;99.90;;;;;;5033694;28;20476;-67
2022/08/05 01:57:52;;;;;;;1999.90;999.90;;;19.60;99.90;;;;;;4982310;28;20446;-66
2022/08/05 02:00:19;;;;;;;1999.90;999.90;;;19.60;99.90;;;;;;4995512;28;20439;-68
2022/08/05 02:02:51;;;;;;;1999.90;999.90;;;19.60;99.90;;;;;;5015420;28;20464;-67
2022/08/05 02:05:19;;;;;;;1999.90;999.90;;;19.50;99.90;;;;;;5030851;28;20396;-67
2022/08/05 02:07:45;;;;;;;1999.90;999.90;;;19.50;99.90;;;;;;5028191;28;20427;-68
2022/08/05 02:10:12;;;;;;;1999.90;999.90;;;19.40;99.90;;;;;;5026911;28;20452;-67
2022/08/05 02:12:52;;;;;;;1999.90;999.90;;;19.30;99.90;;;;;;5010436;28;20442;-67
2022/08/05 02:15:23;;;;;;;1999.90;999.90;;;19.30;99.90;;;;;;4995961;28;20416;-67
2022/08/05 02:17:57;;;;;;;1999.90;999.90;;;19.30;99.90;;;;;;5014884;28;20400;-67
2022/08/05 02:20:27;;;;;;;1999.90;999.90;;;19.20;99.90;;;;;;5013073;28;20762;-67
2022/08/05 02:23:01;;;;;;;1999.90;999.90;;;19.00;99.90;;;;;;5012837;28;20444;-67
2022/08/05 02:25:34;;;;;;;1999.90;999.90;;;18.90;99.90;;;;;;5012935;28;20468;-67
2022/08/05 02:28:02;;;;;;;1999.90;999.90;;;18.90;99.90;;;;;;5012736;28;20918;-67
2022/08/05 02:30:41;;;;;;;1999.90;999.90;;;18.80;99.90;;;;;;5012702;28;20537;-68
2022/08/05 02:33:08;;;;;;;1999.90;999.90;;;18.80;99.90;;;;;;5012951;28;20427;-69
2022/08/05 02:35:36;;;;;;;1999.90;999.90;;;18.60;99.90;;;;;;5012648;28;20457;-68
2022/08/05 02:38:02;;;;;;;1999.90;999.90;;;18.50;99.90;;;;;;5012482;28;20800;-68
2022/08/05 02:40:29;;;;;;;1999.90;999.90;;;18.40;99.90;;;;;;5012634;28;20527;-67
2022/08/05 02:42:55;;;;;;;1999.90;999.90;;;18.40;99.90;;;;;;5012569;28;20843;-67
2022/08/05 02:45:26;;;;;;;1999.90;999.90;;;18.50;99.90;;;;;;5012527;28;20500;-67
2022/08/05 02:47:54;;;;;;;1999.90;999.90;;;18.50;99.90;;;;;;5012433;28;20407;-67
2022/08/05 02:50:21;;;;;;;1999.90;999.90;;;18.40;99.90;;;;;;5012358;28;20448;-67
2022/08/05 02:52:48;;;;;;;1999.90;999.90;;;18.50;99.90;;;;;;5012429;28;20954;-68
2022/08/05 02:55:14;;;;;;;1999.90;999.90;;;18.50;99.90;;;;;;5012425;28;20927;-67
2022/08/05 02:57:41;;;;;;;1999.90;999.90;;;18.50;99.90;;;;;;5012053;28;20406;-67
2022/08/05 03:00:07;;;;;;;1999.90;999.90;;;18.40;99.90;;;;;;5012403;28;20415;-67
2022/08/05 03:02:38;;;;;;;1999.90;999.90;;;18.40;99.90;;;;;;5012108;28;20946;-68
2022/08/05 03:05:07;;;;;;;1999.90;999.90;;;18.40;99.90;;;;;;5012392;28;20896;-68
2022/08/05 03:07:33;;;;;;;1999.90;999.90;;;18.50;99.90;;;;;;5012241;28;20412;-68
2022/08/05 03:09:59;;;;;;;1999.90;999.90;;;18.50;99.90;;;;;;5012775;28;20444;-68
2022/08/05 03:12:33;;;;;;;1999.90;999.90;;;18.50;99.90;;;;;;5012611;28;20443;-68
2022/08/05 03:14:59;;;;;;;1999.90;999.90;;;18.60;99.90;;;;;;5012745;28;20179;-68
2022/08/05 03:17:24;;;;;;;1999.90;999.90;;;18.70;99.90;;;;;;5011977;28;20812;-68
2022/08/05 03:19:50;;;;;;;1999.90;999.90;;;18.80;99.90;;;;;;5012229;28;20411;-68
2022/08/05 03:22:16;;;;;;;1999.90;999.90;;;18.80;99.90;;;;;;5012075;28;20204;-68
2022/08/05 03:24:43;;;;;;;1999.90;999.90;;;18.70;99.90;;;;;;5012157;28;20198;-68
2022/08/05 03:27:09;;;;;;;1999.90;999.90;;;18.70;99.90;;;;;;5011903;28;20176;-68
2022/08/05 03:29:35;;;;;;;1999.90;999.90;;;18.70;99.90;;;;;;5012026;28;20461;-68
2022/08/05 03:32:02;;;;;;;1999.90;999.90;;;18.70;99.90;;;;;;5012092;28;20435;-68
2022/08/05 03:34:28;;;;;;;1999.90;999.90;;;18.70;99.90;;;;;;5012241;28;20186;-67
2022/08/05 03:36:54;;;;;;;1999.90;999.90;;;18.80;99.90;;;;;;5011744;28;20414;-67
2022/08/05 03:39:20;;;;;;;1999.90;999.90;;;18.90;99.90;;;;;;5011936;28;20403;-67
2022/08/05 03:41:45;;;;;;;1999.90;999.90;;;19.00;99.90;;;;;;5011980;28;20793;-67
2022/08/05 03:44:11;;;;;;;1999.90;999.90;;;19.10;99.90;;;;;;5011958;28;20211;-68
2022/08/05 03:46:36;;;;;;;1999.90;999.90;;;19.10;99.90;;;;;;5011791;28;20641;-68
2022/08/05 03:49:02;;;;;;;1999.90;999.90;;;19.20;99.90;;;;;;5011872;28;20173;-67
2022/08/05 03:51:34;;;;;;;1999.90;999.90;;;19.30;99.90;;;;;;5011992;28;20273;-68
2022/08/05 03:54:07;;;;;;;1999.90;999.90;;;19.30;99.90;;;;;;5012443;28;20172;-68
2022/08/05 03:56:40;;;;;;;1999.90;999.90;;;19.30;99.90;;;;;;5011740;28;20394;-67
2022/08/05 03:59:16;;;;;;;1999.90;999.90;;;19.40;99.90;;;;;;5012001;28;20382;-67
2022/08/05 04:01:46;;;;;;;1999.90;999.90;;;19.40;99.90;;;;;;5011729;28;20477;-67
2022/08/05 04:04:13;;;;;;;1999.90;999.90;;;19.40;99.90;;;;;;5011719;28;20784;-67
2022/08/05 04:06:40;;;;;;;1999.90;999.90;;;19.50;99.90;;;;;;5011369;28;20386;-67
2022/08/05 04:09:06;;;;;;;1999.90;999.90;;;19.50;99.90;;;;;;5011672;28;20535;-67
2022/08/05 04:11:33;;;;;;;1999.90;999.90;;;19.50;99.90;;;;;;5011708;28;20482;-67
2022/08/05 04:13:59;;;;;;;1999.90;999.90;;;19.60;99.90;;;;;;5013652;28;20555;-67
2022/08/05 04:16:25;;;;;;;1999.90;999.90;;;19.60;99.90;;;;;;5014964;28;20412;-67
2022/08/05 04:18:51;;;;;;;1999.90;999.90;;;19.50;99.90;;;;;;5015145;28;20756;-67
2022/08/05 04:21:17;;;;;;;1999.90;999.90;;;19.40;99.90;;;;;;5015154;28;20164;-67
2022/08/05 04:23:43;;;;;;;1999.90;999.90;;;19.40;99.90;;;;;;5014942;28;20436;-67
2022/08/05 04:26:08;;;;;;;1999.90;999.90;;;19.30;99.90;;;;;;5014818;28;20661;-67
2022/08/05 04:28:34;;;;;;;1999.90;999.90;;;19.20;99.90;;;;;;5015075;28;20193;-67
2022/08/05 04:31:00;;;;;;;1999.90;999.90;;;19.20;99.90;;;;;;5014984;28;20212;-67
2022/08/05 04:33:26;;;;;;;1999.90;999.90;;;19.20;99.90;;;;;;5014754;28;20277;-67
2022/08/05 04:35:52;;;;;;;1999.90;999.90;;;19.20;99.90;;;;;;5014949;28;20590;-67
2022/08/05 04:38:17;;;;;;;1999.90;999.90;;;19.20;99.90;;;;;;5015198;28;20416;-67
2022/08/05 04:40:43;;;;;;;1999.90;999.90;;;19.20;99.90;;;;;;5015455;28;20201;-67
2022/08/05 04:43:08;;;;;;;1999.90;999.90;;;19.10;99.90;;;;;;5015556;28;20697;-67
2022/08/05 04:45:35;;;;;;;1999.90;999.90;;;19.00;99.90;;;;;;5015304;28;20172;-67
2022/08/05 04:48:07;;;;;;;1999.90;999.90;;;18.90;99.90;;;;;;5015942;28;20598;-67
2022/08/05 04:50:47;;;;;;;1999.90;999.90;;;18.90;99.90;;;;;;5015772;28;20443;-67
2022/08/05 04:53:14;;;;;;;1999.90;999.90;;;19.00;99.90;;;;;;5015490;28;20402;-67
2022/08/05 04:55:41;;;;;;;1999.90;999.90;;;19.00;99.90;;;;;;5015162;28;21028;-67
2022/08/05 04:58:10;;;;;;;1999.90;999.90;;;19.00;99.90;;;;;;5014843;28;20410;-67
2022/08/05 05:00:37;;;;;;;1999.90;999.90;;;18.90;99.90;;;;;;5014822;28;20425;-67
2022/08/05 05:03:04;;;;;;;1999.90;999.90;;;18.90;99.90;;;;;;5014696;28;20434;-67
2022/08/05 05:05:30;;;;;;;1999.90;999.90;;;18.90;99.90;;;;;;5014474;28;20448;-67
2022/08/05 05:08:02;;;;;;;1999.90;999.90;;;18.90;99.90;;;;;;5014010;28;20430;-67
2022/08/05 05:10:32;;;;;;;1999.90;999.90;;;18.90;99.90;;;;;;4996850;28;20206;-67
2022/08/05 05:12:58;;;;;;;1999.90;999.90;;;19.00;99.90;;;;;;5014686;28;20432;-67
2022/08/05 05:15:25;;;;;;;1999.90;999.90;;;19.00;99.90;;;;;;5014845;28;20767;-67
2022/08/05 05:17:50;;;;;;;1999.90;999.90;;;19.00;99.90;;;;;;5014924;28;20666;-67
2022/08/05 05:20:16;;;;;;;1999.90;999.90;;;19.00;99.90;;;;;;5016012;28;20449;-67
2022/08/05 05:22:41;;;;;;;1999.90;999.90;;;19.00;99.90;;;;;;5015679;28;20676;-67
2022/08/05 05:25:07;;;;;;;1999.90;999.90;;;19.00;99.90;;;;;;5012873;28;20179;-67
2022/08/05 05:27:34;;;;;;;1999.90;999.90;;;19.00;99.90;;;;;;5013853;28;20582;-67
2022/08/05 05:30:01;;;;;;;1999.90;999.90;;;19.00;99.90;;;;;;5013999;28;20457;-67
2022/08/05 05:32:27;;;;;;;1999.90;999.90;;;19.00;99.90;;;;;;5013715;28;20452;-67
2022/08/05 05:34:52;;;;;;;1999.90;999.90;;;19.00;99.90;;;;;;5013789;28;20430;-67
2022/08/05 05:37:18;;;;;;;1999.90;999.90;;;19.00;99.90;;;;;;5013480;28;20172;-67
2022/08/05 05:39:44;;;;;;;1999.90;999.90;;;19.10;99.90;;;;;;5013703;28;20224;-67
2022/08/05 05:42:09;;;;;;;1999.90;999.90;;;19.10;99.90;;;;;;5013596;28;20189;-67
2022/08/05 05:44:35;;;;;;;1999.90;999.90;;;19.10;99.90;;;;;;5013671;28;20174;-67
2022/08/05 05:47:01;;;;;;;1999.90;999.90;;;19.00;99.90;;;;;;5014335;28;20666;-67
2022/08/05 05:49:26;;;;;;;1999.90;999.90;;;19.00;99.90;;;;;;5014460;28;20662;-67
2022/08/05 05:51:53;;;;;;;1999.90;999.90;;;19.00;99.90;;;;;;5014309;28;20197;-67
2022/08/05 05:54:18;;;;;;;1999.90;999.90;;;18.90;99.90;;;;;;5013577;28;20179;-67
2022/08/05 05:56:44;;;;;;;1999.90;999.90;;;19.00;99.90;;;;;;5013680;28;20913;-67
2022/08/05 05:59:10;;;;;;;1999.90;999.90;;;19.00;99.90;;;;;;5013768;28;20177;-67
2022/08/05 06:01:40;;;;;;;1999.90;999.90;;;19.10;99.90;;;;;;5013260;28;20173;-67
2022/08/05 06:04:10;;;;;;;1999.90;999.90;;;19.10;99.90;;;;;;5013467;28;20177;-67
2022/08/05 06:06:35;;;;;;;1999.90;999.90;;;19.20;99.90;;;;;;5012669;28;20509;-67
2022/08/05 06:09:04;;;;;;;1999.90;999.90;;;19.20;99.90;;;;;;5013091;28;20514;-67
2022/08/05 06:11:32;;;;;;;1999.90;999.90;;;19.10;99.90;;;;;;5013091;28;20231;-67
2022/08/05 06:13:58;;;;;;;1999.90;999.90;;;19.00;99.90;;;;;;5013071;28;20410;-67
2022/08/05 06:16:24;;;;;;;1999.90;999.90;;;19.00;99.90;;;;;;5012708;28;20434;-67
2022/08/05 06:18:50;;;;;;;1999.90;999.90;;;18.90;99.90;;;;;;5013075;28;20399;-67
2022/08/05 06:21:16;;;;;;;1999.90;999.90;;;18.90;99.90;;;;;;5013105;28;20320;-67
2022/08/05 06:23:41;;;;;;;1999.90;999.90;;;18.90;99.90;;;;;;5012930;28;20587;-67
2022/08/05 06:26:07;;;;;;;1999.90;999.90;;;18.90;99.90;;;;;;5013800;28;20499;-67
2022/08/05 06:28:33;;;;;;;1999.90;999.90;;;19.00;99.90;;;;;;5013061;28;20679;-67
2022/08/05 06:30:58;;;;;;;1999.90;999.90;;;19.00;99.90;;;;;;5012968;28;20281;-67
2022/08/05 06:33:24;;;;;;;1999.90;999.90;;;19.00;99.90;;;;;;5013115;28;20615;-67
2022/08/05 06:35:50;;;;;;;1999.90;999.90;;;19.00;99.90;;;;;;5012431;28;20171;-67
2022/08/05 06:38:16;;;;;;;1999.90;999.90;;;19.10;99.90;;;;;;5013366;28;20241;-67
2022/08/05 06:40:43;;;;;;;1999.90;999.90;;;19.00;99.90;;;;;;5013527;28;20496;-68
2022/08/05 06:43:08;;;;;;;1999.90;999.90;;;18.90;99.90;;;;;;5013348;28;20195;-67
2022/08/05 06:45:34;;;;;;;1999.90;999.90;;;18.90;99.90;;;;;;5013302;28;20851;-67
2022/08/05 06:48:00;;;;;;;1999.90;999.90;;;18.90;99.90;;;;;;5012469;28;20195;-67
2022/08/05 06:50:25;;;;;;;1999.90;999.90;;;18.80;99.90;;;;;;5012766;28;20193;-67
2022/08/05 06:52:51;;;;;;;1999.90;999.90;;;18.80;99.90;;;;;;5012467;28;20193;-67
2022/08/05 06:55:17;;;;;;;1999.90;999.90;;;18.80;99.90;;;;;;5012271;28;20178;-67
2022/08/05 06:57:43;;;;;;;1999.90;999.90;;;18.80;99.90;;;;;;5011988;28;20410;-67
2022/08/05 07:00:09;;;;;;;1999.90;999.90;;;18.90;99.90;;;;;;5012428;28;20174;-67
2022/08/05 07:02:45;;;;;;;1999.90;999.90;;;18.90;99.90;;;;;;5012277;28;20202;-67
2022/08/05 07:05:11;;;;;;;1999.90;999.90;;;18.80;99.90;;;;;;5012428;28;20412;-67
2022/08/05 07:07:37;;;;;;;1999.90;999.90;;;18.70;99.90;;;;;;5012058;28;20924;-67
2022/08/05 07:10:04;;;;;;;1999.90;999.90;;;18.70;99.90;;;;;;5012190;28;20855;-67
2022/08/05 07:17:58;;;;;;;1999.90;999.90;;;18.60;99.90;;;;;;5012235;28;20437;-67
2022/08/05 07:20:24;;;;;;;1999.90;999.90;;;18.60;99.90;;;;;;5012260;28;20412;-67
2022/08/05 07:22:49;;;;;;;1999.90;999.90;;;18.60;99.90;;;;;;5012357;28;20205;-67
2022/08/05 07:25:15;;;;;;;1999.90;999.90;;;18.60;99.90;;;;;;5013777;28;20169;-67
2022/08/05 07:27:40;;;;;;;1999.90;999.90;;;18.60;99.90;;;;;;5012807;28;20635;-67
2022/08/05 07:30:07;;;;;;;1999.90;999.90;;;18.50;99.90;;;;;;5012424;28;20200;-67
2022/08/05 07:32:36;;;;;;;1999.90;999.90;;;18.40;99.90;;;;;;5013043;28;20188;-67
2022/08/05 07:35:12;;;;;;;1999.90;999.90;;;18.30;99.90;;;;;;5012116;28;20405;-67
2022/08/05 07:37:39;;;;;;;1999.90;999.90;;;18.20;99.90;;;;;;5011796;28;20771;-67
2022/08/05 07:40:06;;;;;;;1999.90;999.90;;;18.20;99.90;;;;;;5011965;28;20761;-67
2022/08/05 07:42:32;;;;;;;1999.90;999.90;;;18.10;99.90;;;;;;5011456;28;20429;-67
2022/08/05 07:44:58;;;;;;;1999.90;999.90;;;18.00;99.90;;;;;;5012422;28;20902;-67
2022/08/05 07:47:24;;;;;;;1999.90;999.90;;;18.00;99.90;;;;;;5012099;28;20405;-67
2022/08/05 07:49:52;;;;;;;1999.90;999.90;;;18.00;99.90;;;;;;5015198;28;20564;-67
2022/08/05 07:52:19;;;;;;;1999.90;999.90;;;17.90;99.90;;;;;;5015773;28;20188;-67
2022/08/05 07:54:45;;;;;;;1999.90;999.90;;;17.80;99.90;;;;;;5015773;28;20404;-66
2022/08/05 07:57:11;;;;;;;1999.90;999.90;;;17.80;99.90;;;;;;5015298;28;20425;-66
2022/08/05 07:59:36;;;;;;;1999.90;999.90;;;17.70;99.90;;;;;;5015572;28;20808;-67
2022/08/05 08:02:02;;;;;;;1999.90;999.90;;;17.70;99.90;;;;;;5015376;28;20424;-67
2022/08/05 08:04:28;;;;;;;1999.90;999.90;;;17.70;99.90;;;;;;5015485;28;20594;-67
2022/08/05 08:06:54;;;;;;;1999.90;999.90;;;17.60;99.90;;;;;;5015104;28;20494;-67
2022/08/05 08:09:23;;;;;;;1999.90;999.90;;;17.60;99.90;;;;;;5015302;28;20198;-67
2022/08/05 08:11:48;;;;;;;1999.90;999.90;;;17.60;99.90;;;;;;5015748;28;20735;-67
2022/08/05 08:14:14;;;;;;;1999.90;999.90;;;17.60;99.90;;;;;;4982063;28;20503;-67
2022/08/05 08:16:40;;;;;;;1999.90;999.90;;;17.60;99.90;;;;;;4998313;28;20204;-71
2022/08/05 08:19:07;;;;;;;1999.90;999.90;;;17.60;99.90;;;;;;5015415;28;20199;-71
2022/08/05 08:21:32;;;;;;;1999.90;999.90;;;17.70;99.90;;;;;;5012626;28;20263;-71
2022/08/05 08:23:58;;;;;;;1999.90;999.90;;;17.70;99.90;;;;;;5014189;28;20505;-71
2022/08/05 08:26:24;;;;;;;1999.90;999.90;;;17.70;99.90;;;;;;5014099;28;20173;-72
2022/08/05 08:28:49;;;;;;;1999.90;999.90;;;17.80;99.90;;;;;;4996738;28;20547;-73
2022/08/05 08:31:15;;;;;;;1999.90;999.90;;;17.80;99.90;;;;;;5014576;28;20556;-69
2022/08/05 08:33:40;;;;;;;1999.90;999.90;;;17.90;99.90;;;;;;5014394;28;20195;-72
2022/08/05 08:36:07;;;;;;;1999.90;999.90;;;17.90;99.90;;;;;;5014286;28;20165;-70
2022/08/05 08:38:32;;;;;;;1999.90;999.90;;;17.80;99.90;;;;;;5015470;28;20170;-72
2022/08/05 08:41:02;;;;;;;1999.90;999.90;;;17.60;99.90;;;;;;5014982;28;20791;-71
2022/08/05 08:43:27;;;;;;;1999.90;999.90;;;17.50;99.90;;;;;;5014305;28;20219;-70
2022/08/05 08:45:55;;;;;;;1999.90;999.90;;;17.40;99.90;;;;;;5014406;28;20999;-70
2022/08/05 08:48:21;;;;;;;1999.90;999.90;;;17.40;99.90;;;;;;5014216;28;20193;-70
2022/08/05 08:50:48;;;;;;;1999.90;999.90;;;17.40;99.90;;;;;;5014202;28;20450;-70
2022/08/05 08:53:15;;;;;;;1999.90;999.90;;;17.50;99.90;;;;;;5013999;28;20530;-72
2022/08/05 08:55:41;;;;;;;1999.90;999.90;;;17.50;99.90;;;;;;5014489;28;20407;-70
2022/08/05 08:58:08;;;;;;;1999.90;999.90;;;17.50;99.90;;;;;;5014261;28;20902;-71
2022/08/05 09:00:34;;;;;;;1999.90;999.90;;;17.50;99.90;;;;;;5013710;28;20181;-69
2022/08/05 09:03:00;;;;;;;1999.90;999.90;;;17.50;99.90;;;;;;5013648;28;20459;-71
2022/08/05 09:05:26;;;;;;;1999.90;999.90;;;17.40;99.90;;;;;;5014281;28;20172;-70
2022/08/05 09:07:53;;;;;;;1999.90;999.90;;;17.30;99.90;;;;;;5013779;28;20441;-71
2022/08/05 09:10:19;;;;;;;1999.90;999.90;;;17.30;99.90;;;;;;5013714;28;20196;-70
2022/08/05 09:12:45;;;;;;;1999.90;999.90;;;17.30;99.90;;;;;;5013459;28;20446;-71
2022/08/05 09:15:11;;;;;;;1999.90;999.90;;;17.30;99.90;;;;;;5010349;28;20400;-70
2022/08/05 09:17:38;;;;;;;1999.90;999.90;;;17.30;99.90;;;;;;5013168;28;20816;-70
2022/08/05 09:20:05;;;;;;;1999.90;999.90;;;17.30;99.90;;;;;;5013526;28;20181;-70
2022/08/05 09:23:05;;;;;;;1999.90;999.90;;;17.40;99.90;;;;;;4995073;28;20463;-69
2022/08/05 09:25:32;;;;;;;1999.90;999.90;;;17.40;99.90;;;;;;5013384;28;20403;-70
2022/08/05 09:28:11;;;;;;;1999.90;999.90;;;17.50;99.90;;;;;;5013017;28;20414;-69
2022/08/05 09:30:37;;;;;;;1999.90;999.90;;;17.70;99.90;;;;;;5012886;28;20851;-72
2022/08/05 09:33:03;;;;;;;1999.90;999.90;;;17.90;99.90;;;;;;5013719;28;20809;-73
2022/08/05 09:35:29;;;;;;;1999.90;999.90;;;18.00;99.90;;;;;;5013491;28;20442;-73
2022/08/05 09:37:57;;;;;;;1999.90;999.90;;;18.10;99.90;;;;;;5012379;28;20968;-72
2022/08/05 09:40:32;;;;;;;1999.90;999.90;;;18.00;99.90;;;;;;5013449;28;20171;-72
2022/08/05 09:42:58;;;;;;;1999.90;999.90;;;18.00;99.90;;;;;;5012809;28;20440;-70
2022/08/05 09:45:38;;;;;;;1999.90;999.90;;;17.90;99.90;;;;;;5012521;28;20409;-73
2022/08/05 09:48:24;;;;;;;1999.90;999.90;;;17.80;99.90;;;;;;5012633;28;20416;-73
2022/08/05 09:50:55;;;;;;;1999.90;999.90;;;17.90;99.90;;;;;;5012187;28;20456;-73
2022/08/05 09:53:22;;;;;;;1999.90;999.90;;;17.90;99.90;;;;;;5012771;28;20830;-72
2022/08/05 09:56:00;;;;;;;1999.90;999.90;;;17.90;99.90;;;;;;5012571;28;21129;-71
2022/08/05 09:58:27;;;;;;;1999.90;999.90;;;18.00;99.90;;;;;;5012382;28;20399;-70
2022/08/05 10:01:00;;;;;;;1999.90;999.90;;;18.10;99.90;;;;;;5012948;28;20428;-72
2022/08/05 10:03:28;;;;;;;1999.90;999.90;;;18.00;99.90;;;;;;5012980;28;20502;-70
2022/08/05 10:06:19;;;;;;;1999.90;999.90;;;17.90;99.90;;;;;;5012344;28;20441;-70
2022/08/05 10:08:45;;;;;;;1999.90;999.90;;;17.90;99.90;;;;;;5011406;28;20419;-70
2022/08/05 10:11:15;;;;;;;1999.90;999.90;;;17.80;99.90;;;;;;5011595;28;20497;-71
2022/08/05 10:13:42;;;;;;;1999.90;999.90;;;17.80;99.90;;;;;;5012035;28;20563;-71
2022/08/05 10:16:35;;;;;;;1999.90;999.90;;;17.90;99.90;;;;;;5011593;28;20405;-71
2022/08/05 10:19:01;;;;;;;1999.90;999.90;;;18.00;99.90;;;;;;5012286;28;20411;-71
2022/08/05 10:21:27;;;;;;;1999.90;999.90;;;18.10;99.90;;;;;;5012232;28;20415;-70
2022/08/05 10:23:54;;;;;;;1999.90;999.90;;;18.10;99.90;;;;;;5012409;28;20446;-70
2022/08/05 10:26:19;;;;;;;1999.90;999.90;;;18.30;99.90;;;;;;5012143;28;20440;-70
2022/08/05 10:28:46;;;;;;;1999.90;999.90;;;18.40;99.90;;;;;;5012498;28;20826;-66
2022/08/05 10:31:16;;;;;;;1999.90;999.90;;;18.60;99.90;;;;;;5012126;28;20201;-66
2022/08/05 10:33:42;;;;;;;1999.90;999.90;;;18.70;99.90;;;;;;5012328;28;20431;-66
2022/08/05 10:36:07;;;;;;;1999.90;999.90;;;18.90;99.90;;;;;;5011240;28;20410;-66
2022/08/05 10:38:35;;;;;;;1999.90;999.90;;;18.90;99.90;;;;;;5012076;28;20406;-66
2022/08/05 10:41:06;;;;;;;1999.90;999.90;;;18.90;99.90;;;;;;5012010;28;20157;-67
2022/08/05 10:43:49;;;;;;;1999.90;999.90;;;18.90;99.90;;;;;;5011501;28;20932;-67
2022/08/05 10:46:17;;;;;;;1999.90;999.90;;;19.00;99.90;;;;;;5011607;28;20445;-66
2022/08/05 10:48:44;;;;;;;1999.90;999.90;;;19.10;99.90;;;;;;5011786;28;20749;-67
2022/08/05 10:51:14;;;;;;;1999.90;999.90;;;19.30;99.90;;;;;;5011236;28;20549;-66
2022/08/05 10:53:41;;;;;;;1999.90;999.90;;;19.40;99.90;;;;;;5011655;28;20456;-67
2022/08/05 10:56:16;;;;;;;1999.90;999.90;;;19.70;99.90;;;;;;5011224;28;20880;-67
2022/08/05 10:58:53;;;;;;;1999.90;999.90;;;19.80;99.90;;;;;;5011334;28;20428;-66
2022/08/05 11:01:40;;;;;;;1999.90;999.90;;;20.20;99.90;;;;;;5011676;28;20772;-66
2022/08/05 11:04:11;;;;;;;1999.90;999.90;;;20.60;99.90;;;;;;5011694;28;20486;-67
2022/08/05 11:06:56;;;;;;;1999.90;999.90;;;20.80;99.90;;;;;;5011075;28;20507;-67
2022/08/05 11:09:38;;;;;;;1999.90;999.90;;;20.80;99.90;;;;;;5011279;28;20460;-67
2022/08/05 11:12:04;;;;;;;1999.90;999.90;;;21.00;99.90;;;;;;5011029;28;20460;-67
2022/08/05 11:14:35;;;;;;;1999.90;999.90;;;21.50;99.90;;;;;;5011477;28;20437;-67
2022/08/05 11:17:25;;;;;;;1999.90;999.90;;;21.70;99.90;;;;;;5011069;28;20775;-67
2022/08/05 11:19:54;;;;;;;1999.90;999.90;;;21.60;99.90;;;;;;5011011;28;20402;-67
2022/08/05 11:22:47;;;;;;;1999.90;999.90;;;21.90;99.90;;;;;;5053600;22;20433;-72
2022/08/05 11:25:32;;;;;;;1999.90;999.90;;;22.30;99.90;;;;;;5015564;28;20757;-72
2022/08/05 11:28:10;;;;;;;1999.90;999.90;;;22.70;99.90;;;;;;5014739;28;20457;-73
2022/08/05 11:30:54;;;;;;;1999.90;999.90;;;22.70;99.90;;;;;;5015214;28;20968;-72
2022/08/05 11:33:45;;;;;;;1999.90;999.90;;;23.10;99.90;;;;;;5015400;28;20841;-72
2022/08/05 11:36:14;;;;;;;1999.90;999.90;;;23.60;99.90;;;;;;5014756;28;20404;-72
2022/08/05 11:38:40;;;;;;;1999.90;999.90;;;23.50;99.90;;;;;;5015143;28;20422;-72
2022/08/05 11:41:30;;;;;;;1999.90;999.90;;;23.20;99.90;;;;;;5015544;28;20404;-72
2022/08/05 11:43:59;;;;;;;1999.90;999.90;;;23.00;99.90;;;;;;5015086;28;20231;-72
2022/08/05 11:46:40;;;;;;;1999.90;999.90;;;23.10;99.90;;;;;;5015372;28;20418;-73
2022/08/05 11:49:07;;;;;;;1999.90;999.90;;;23.40;99.90;;;;;;5015512;28;20803;-72
2022/08/05 11:51:34;;;;;;;1999.90;999.90;;;23.30;99.90;;;;;;5015430;28;20404;-73
2022/08/05 11:54:00;;;;;;;1999.90;999.90;;;23.10;99.90;;;;;;5015723;28;20437;-72
2022/08/05 11:56:45;;;;;;;1999.90;999.90;;;23.30;99.90;;;;;;5014510;28;20924;-72
2022/08/05 11:59:25;;;;;;;1999.90;999.90;;;23.60;99.90;;;;;;5014914;28;20791;-72
2022/08/05 12:02:05;;;;;;;1999.90;999.90;;;24.10;99.90;;;;;;5015160;28;20394;-72
2022/08/05 12:04:41;;;;;;;1999.90;999.90;;;24.60;99.90;;;;;;5014710;28;20369;-72
2022/08/05 12:07:08;;;;;;;1999.90;999.90;;;25.10;99.90;;;;;;5014718;28;20382;-72
2022/08/05 12:09:43;;;;;;;1999.90;999.90;;;25.80;99.90;;;;;;5014780;28;20923;-72
2022/08/05 12:12:09;;;;;;;1999.90;999.90;;;26.70;99.90;;;;;;5014257;28;20382;-72
2022/08/05 12:14:38;;;;;;;1999.90;999.90;;;26.80;99.90;;;;;;5014663;28;20450;-72